LFMNLFLU

Guest
Details From LFMN - Nice/Cote d'Azur
To LFLU - Valence Chabeuil
Flight Number -
Tags generated
Created
Modified
Stats Distance 123 nm / 227 km
Max Altitude 6,000 ft / 1,829 m
Waypoints 3
Social Downloads 1
Likes 0
Share VATSIM

Download

Looking for another format? Having issues loading an existing format? Contact us
Advertisement - Login to hide

Notes

Basic altitude profile: - Ascent Rate: 2500ft/min - Ascent Speed: 170kts - Cruise Altitude: 6000ft - Cruise Speed: 220kts - Descent Rate: 1500ft/min - Descent Speed: 170kts

Route

LFMN AMIRO LFLU

ID Type Via Altitude Latitude Longitude Leg Dist Tot Dist Heading (true) Name
O LFMN APT - 0 ft / 0 m 43.65798˚ 7.21536˚ - 0 nm - Nice/Cote d'Azur
AMIRO FIX - 6,000 ft / 1,829 m 43.94111˚ 6.74806˚ 26 nm 26 nm 310° / 310° -
O LFLU APT - 0 ft / 0 m 44.92159˚ 4.96990˚ 96 nm 122 nm 308° / 307° Valence Chabeuil

Altitude Profile

Advertisement - Login to hide

LFMN

Details ICAO LFMN (NCE)
Name Nice/Cote d'Azur
Region France
Timezone Unknown (UTC+0.0)
Stats Elevation 12 ft / 4 m (AMSL)
Location 43.657981° 7.215362°
Runways 2
Magnetic Variation 2.065° E

METAR

LFMN 221430Z 03003KT 350V060 9999 FEW016 BKN066 19/14 Q1014 NOSIG

Decode

TAF

TAF LFMN 221400Z 2215/2321 18006KT 9999 FEW018 BKN070 BECMG 2219/2221 36006KT BECMG 2304/2306 CAVOK BECMG 2307/2309 18008KT FEW030 SCT080 BECMG 2318/2320 34010KT CAVOK

Decode

Departure Runways

ID Width Length Bearing (true) Bearing (mag) Surface Threshold Offset Overrun Length
04L 148 ft / 45 m 8,427 ft / 2,569 m 44.85° 42.78° Asphalt 0 ft / 0 m 131 ft / 40 m
04R 148 ft / 45 m 9,720 ft / 2,963 m 44.60° 42.53° Asphalt 0 ft / 0 m 427 ft / 130 m
22L 148 ft / 45 m 9,720 ft / 2,963 m 224.62° 222.55° Asphalt 0 ft / 0 m 525 ft / 160 m
22R 148 ft / 45 m 8,427 ft / 2,569 m 224.87° 222.80° Asphalt 0 ft / 0 m 492 ft / 150 m

LFLU

Details ICAO LFLU (VAF)
Name Valence Chabeuil
Region France
Timezone Europe/Paris (UTC+2.0)
Stats Elevation 525 ft / 160 m (AMSL)
Location 44.921594° 4.969900°
Runways 1
Magnetic Variation 1.525° E

METAR

LFLU 221430Z AUTO 17011KT 140V200 9999 -RA FEW031/// BKN052/// OVC066/// ///CB 21/14 Q1011

Decode

TAF

Not found

Destination Runways

ID Width Length Bearing (true) Bearing (mag) Surface Threshold Offset Overrun Length
01 148 ft / 45 m 6,896 ft / 2,102 m 7.74° 6.21° Asphalt 771 ft / 235 m 0 ft / 0 m
19 148 ft / 45 m 6,896 ft / 2,102 m 187.74° 186.21° Asphalt 0 ft / 0 m 0 ft / 0 m

Approach Navaids

Runway Type Ident Frequency Range Bearing (true) Bearing (mag) Slope Elevation
01 Localiser VE 110.15 MHz 18 nm / 33 km 7.74° 6.21° - 547 ft / 167 m (AMSL)
01 Glidescope VE 110.15 MHz 10 nm / 19 km 7.74° 6.21° 3.00° 574 ft / 175 m (AMSL)
01 DME VE 110.15 MHz 18 nm / 33 km - - - 574 ft / 175 m (AMSL)

Popular Alternatives